sensor_id;sensor_type;location;lat;lon;timestamp;pressure;altitude;pressure_sealevel;temperature;humidity
10176;BME280;18221;38.704;0.152;2024-03-23T01:01:45;99012.66;;;21.63;29.78
10176;BME280;18221;38.704;0.152;2024-03-23T01:04:13;99005.38;;;21.70;29.80
10176;BME280;18221;38.704;0.152;2024-03-23T01:06:40;98998.09;;;21.70;29.82
10176;BME280;18221;38.704;0.152;2024-03-23T01:09:08;98999.75;;;21.65;29.89
10176;BME280;18221;38.704;0.152;2024-03-23T01:11:37;99001.44;;;21.66;29.97
10176;BME280;18221;38.704;0.152;2024-03-23T01:14:05;99012.66;;;21.63;30.14
10176;BME280;18221;38.704;0.152;2024-03-23T01:16:32;99015.59;;;21.61;30.02
10176;BME280;18221;38.704;0.152;2024-03-23T01:19:02;99006.22;;;21.64;30.20
10176;BME280;18221;38.704;0.152;2024-03-23T01:21:29;99012.25;;;21.59;30.49
10176;BME280;18221;38.704;0.152;2024-03-23T01:23:57;99009.56;;;21.52;30.63
10176;BME280;18221;38.704;0.152;2024-03-23T01:26:24;98998.94;;;21.58;30.60
10176;BME280;18221;38.704;0.152;2024-03-23T01:28:52;98998.56;;;21.47;30.79
10176;BME280;18221;38.704;0.152;2024-03-23T01:31:19;98995.00;;;21.47;31.04
10176;BME280;18221;38.704;0.152;2024-03-23T01:33:47;98988.97;;;21.58;30.70
10176;BME280;18221;38.704;0.152;2024-03-23T01:36:15;98986.66;;;21.62;30.95
10176;BME280;18221;38.704;0.152;2024-03-23T01:38:43;98995.00;;;21.60;30.47
10176;BME280;18221;38.704;0.152;2024-03-23T01:41:10;98991.44;;;21.73;30.29
10176;BME280;18221;38.704;0.152;2024-03-23T01:43:38;98995.19;;;21.65;30.39
10176;BME280;18221;38.704;0.152;2024-03-23T01:46:04;98993.75;;;21.63;30.58
10176;BME280;18221;38.704;0.152;2024-03-23T01:48:32;99000.81;;;21.64;30.68
10176;BME280;18221;38.704;0.152;2024-03-23T01:51:00;98997.28;;;21.63;30.60
10176;BME280;18221;38.704;0.152;2024-03-23T01:53:30;98998.28;;;21.75;30.44
10176;BME280;18221;38.704;0.152;2024-03-23T01:55:58;98996.88;;;21.66;30.56
10176;BME280;18221;38.704;0.152;2024-03-23T01:58:26;98992.91;;;21.69;30.55
10176;BME280;18221;38.704;0.152;2024-03-23T02:00:53;98996.88;;;21.66;30.68
10176;BME280;18221;38.704;0.152;2024-03-23T02:03:24;98983.16;;;21.61;30.69
10176;BME280;18221;38.704;0.152;2024-03-23T02:05:52;98982.50;;;21.59;30.62
10176;BME280;18221;38.704;0.152;2024-03-23T02:08:59;98985.63;;;21.63;30.86
10176;BME280;18221;38.704;0.152;2024-03-23T02:11:27;98984.00;;;21.55;30.92
10176;BME280;18221;38.704;0.152;2024-03-23T02:13:54;98982.56;;;21.26;31.41
10176;BME280;18221;38.704;0.152;2024-03-23T02:16:22;98990.25;;;21.36;31.22
10176;BME280;18221;38.704;0.152;2024-03-23T02:18:49;98976.31;;;21.39;31.13
10176;BME280;18221;38.704;0.152;2024-03-23T02:21:17;98980.91;;;21.32;31.09
10176;BME280;18221;38.704;0.152;2024-03-23T02:23:45;98974.88;;;21.17;31.41
10176;BME280;18221;38.704;0.152;2024-03-23T02:26:13;98979.03;;;21.13;31.31
10176;BME280;18221;38.704;0.152;2024-03-23T02:28:41;98981.72;;;21.26;31.34
10176;BME280;18221;38.704;0.152;2024-03-23T02:31:09;98977.59;;;21.30;31.09
10176;BME280;18221;38.704;0.152;2024-03-23T02:33:36;98975.28;;;21.40;30.99
10176;BME280;18221;38.704;0.152;2024-03-23T02:36:05;98974.44;;;21.39;31.00
10176;BME280;18221;38.704;0.152;2024-03-23T02:38:31;98976.13;;;21.34;31.21
10176;BME280;18221;38.704;0.152;2024-03-23T02:41:04;98975.88;;;21.35;31.22
10176;BME280;18221;38.704;0.152;2024-03-23T02:43:30;98976.53;;;21.31;31.16
10176;BME280;18221;38.704;0.152;2024-03-23T02:45:58;98981.94;;;21.31;31.33
10176;BME280;18221;38.704;0.152;2024-03-23T02:48:25;98970.09;;;21.19;31.40
10176;BME280;18221;38.704;0.152;2024-03-23T02:50:54;98972.38;;;21.15;31.48
10176;BME280;18221;38.704;0.152;2024-03-23T02:53:20;98969.03;;;21.07;31.63
10176;BME280;18221;38.704;0.152;2024-03-23T02:55:48;98957.81;;;21.03;31.31
10176;BME280;18221;38.704;0.152;2024-03-23T02:58:17;98954.91;;;20.98;31.51
10176;BME280;18221;38.704;0.152;2024-03-23T03:00:45;98963.66;;;21.07;31.11
10176;BME280;18221;38.704;0.152;2024-03-23T03:03:12;98961.34;;;20.97;31.24
10176;BME280;18221;38.704;0.152;2024-03-23T03:05:40;98960.72;;;21.02;31.37
10176;BME280;18221;38.704;0.152;2024-03-23T03:08:07;98960.50;;;20.97;31.34
10176;BME280;18221;38.704;0.152;2024-03-23T03:10:35;98960.13;;;21.13;31.19
10176;BME280;18221;38.704;0.152;2024-03-23T03:13:03;98953.69;;;21.27;30.78
10176;BME280;18221;38.704;0.152;2024-03-23T03:15:32;98956.59;;;21.25;31.06
10176;BME280;18221;38.704;0.152;2024-03-23T03:17:59;98968.63;;;21.36;30.85
10176;BME280;18221;38.704;0.152;2024-03-23T03:20:27;98962.84;;;21.32;31.13
10176;BME280;18221;38.704;0.152;2024-03-23T03:22:54;98954.91;;;21.44;31.04
10176;BME280;18221;38.704;0.152;2024-03-23T03:25:22;98953.69;;;21.27;31.34
10176;BME280;18221;38.704;0.152;2024-03-23T03:27:49;98952.44;;;21.23;31.44
10176;BME280;18221;38.704;0.152;2024-03-23T03:30:17;98949.94;;;21.28;31.12
10176;BME280;18221;38.704;0.152;2024-03-23T03:32:45;98946.81;;;21.18;31.39
10176;BME280;18221;38.704;0.152;2024-03-23T03:35:13;98944.50;;;21.02;31.54
10176;BME280;18221;38.704;0.152;2024-03-23T03:37:41;98948.31;;;21.14;31.21
10176;BME280;18221;38.704;0.152;2024-03-23T03:40:10;98949.94;;;21.21;30.98
10176;BME280;18221;38.704;0.152;2024-03-23T03:42:37;98949.72;;;21.23;30.88
10176;BME280;18221;38.704;0.152;2024-03-23T03:45:06;98955.53;;;21.20;30.89
10176;BME280;18221;38.704;0.152;2024-03-23T03:47:34;98953.28;;;21.17;31.16
10176;BME280;18221;38.704;0.152;2024-03-23T03:50:03;98953.47;;;21.15;31.39
10176;BME280;18221;38.704;0.152;2024-03-23T03:52:30;98956.78;;;21.17;31.59
10176;BME280;18221;38.704;0.152;2024-03-23T03:55:02;98953.50;;;21.22;31.60
10176;BME280;18221;38.704;0.152;2024-03-23T03:57:29;98957.41;;;21.26;31.46
10176;BME280;18221;38.704;0.152;2024-03-23T03:59:57;98959.91;;;21.21;31.60
10176;BME280;18221;38.704;0.152;2024-03-23T04:02:24;98949.13;;;21.27;31.68
10176;BME280;18221;38.704;0.152;2024-03-23T04:04:52;98947.44;;;21.20;32.13
10176;BME280;18221;38.704;0.152;2024-03-23T04:07:20;98950.97;;;21.01;32.67
10176;BME280;18221;38.704;0.152;2024-03-23T04:09:49;98949.09;;;20.94;33.10
10176;BME280;18221;38.704;0.152;2024-03-23T04:12:16;98959.69;;;20.89;33.16
10176;BME280;18221;38.704;0.152;2024-03-23T04:14:43;98950.34;;;20.92;33.26
10176;BME280;18221;38.704;0.152;2024-03-23T04:17:13;98945.75;;;20.86;33.50
10176;BME280;18221;38.704;0.152;2024-03-23T04:19:41;98945.34;;;20.96;33.41
10176;BME280;18221;38.704;0.152;2024-03-23T04:22:08;98952.59;;;21.02;32.92
10176;BME280;18221;38.704;0.152;2024-03-23T04:24:37;98948.09;;;21.09;32.36
10176;BME280;18221;38.704;0.152;2024-03-23T04:27:07;98954.53;;;21.14;32.21
10176;BME280;18221;38.704;0.152;2024-03-23T04:29:35;98956.97;;;21.03;31.89
10176;BME280;18221;38.704;0.152;2024-03-23T04:32:02;98952.41;;;20.97;31.66
10176;BME280;18221;38.704;0.152;2024-03-23T04:34:30;98956.97;;;20.89;31.48
10176;BME280;18221;38.704;0.152;2024-03-23T04:36:59;98953.66;;;20.87;31.53
10176;BME280;18221;38.704;0.152;2024-03-23T04:39:27;98959.25;;;20.86;31.71
10176;BME280;18221;38.704;0.152;2024-03-23T04:41:56;98954.06;;;20.84;31.89
10176;BME280;18221;38.704;0.152;2024-03-23T04:44:24;98957.78;;;20.83;32.14
10176;BME280;18221;38.704;0.152;2024-03-23T04:46:52;98957.78;;;20.83;31.92
10176;BME280;18221;38.704;0.152;2024-03-23T04:49:21;98963.41;;;20.82;31.74
10176;BME280;18221;38.704;0.152;2024-03-23T04:51:49;98969.03;;;20.80;31.44
10176;BME280;18221;38.704;0.152;2024-03-23T04:54:17;98966.72;;;20.77;30.86
10176;BME280;18221;38.704;0.152;2024-03-23T04:56:45;98970.06;;;20.79;30.43
10176;BME280;18221;38.704;0.152;2024-03-23T04:59:15;98972.75;;;20.79;29.97
10176;BME280;18221;38.704;0.152;2024-03-23T05:01:41;98979.16;;;20.78;29.89
10176;BME280;18221;38.704;0.152;2024-03-23T05:04:09;98969.97;;;20.47;30.64
10176;BME280;18221;38.704;0.152;2024-03-23T05:06:36;98978.72;;;20.49;31.49
10176;BME280;18221;38.704;0.152;2024-03-23T05:09:05;98982.44;;;20.41;32.40
10176;BME280;18221;38.704;0.152;2024-03-23T05:11:33;98986.94;;;20.34;32.57
10176;BME280;18221;38.704;0.152;2024-03-23T05:14:01;98976.81;;;20.49;32.57
10176;BME280;18221;38.704;0.152;2024-03-23T05:16:30;98982.25;;;20.62;32.35
10176;BME280;18221;38.704;0.152;2024-03-23T05:18:58;98982.09;;;20.77;32.12
10176;BME280;18221;38.704;0.152;2024-03-23T05:21:25;98977.69;;;20.56;32.93
10176;BME280;18221;38.704;0.152;2024-03-23T05:23:54;98985.41;;;20.72;32.62
10176;BME280;18221;38.704;0.152;2024-03-23T05:26:23;98988.50;;;20.69;32.92
10176;BME280;18221;38.704;0.152;2024-03-23T05:28:51;98985.63;;;20.77;32.67
10176;BME280;18221;38.704;0.152;2024-03-23T05:31:23;98989.31;;;20.63;32.96
10176;BME280;18221;38.704;0.152;2024-03-23T05:33:53;98991.41;;;20.68;32.90
10176;BME280;18221;38.704;0.152;2024-03-23T05:36:21;99001.38;;;20.67;33.38
10176;BME280;18221;38.704;0.152;2024-03-23T05:38:50;99004.66;;;20.63;33.67
10176;BME280;18221;38.704;0.152;2024-03-23T05:41:17;99002.16;;;20.48;33.78
10176;BME280;18221;38.704;0.152;2024-03-23T05:43:45;99009.22;;;20.56;33.83
10176;BME280;18221;38.704;0.152;2024-03-23T05:46:15;99017.09;;;20.57;33.85
10176;BME280;18221;38.704;0.152;2024-03-23T05:48:44;99016.63;;;20.34;34.21
10176;BME280;18221;38.704;0.152;2024-03-23T05:51:12;99025.94;;;20.25;34.42
10176;BME280;18221;38.704;0.152;2024-03-23T05:53:40;99028.06;;;20.36;34.20
10176;BME280;18221;38.704;0.152;2024-03-23T05:56:07;99021.59;;;20.30;34.08
10176;BME280;18221;38.704;0.152;2024-03-23T05:58:35;99019.75;;;20.38;34.04
10176;BME280;18221;38.704;0.152;2024-03-23T06:01:03;99021.47;;;20.58;33.73
10176;BME280;18221;38.704;0.152;2024-03-23T06:03:31;99021.28;;;20.66;33.68
10176;BME280;18221;38.704;0.152;2024-03-23T06:05:58;99030.66;;;20.77;33.44
10176;BME280;18221;38.704;0.152;2024-03-23T06:08:27;99027.28;;;20.55;33.30
10176;BME280;18221;38.704;0.152;2024-03-23T06:10:54;99032.84;;;20.47;33.59
10176;BME280;18221;38.704;0.152;2024-03-23T06:13:22;99040.66;;;20.29;33.73
10176;BME280;18221;38.704;0.152;2024-03-23T06:15:56;99040.50;;;20.37;33.77
10176;BME280;18221;38.704;0.152;2024-03-23T06:18:25;99042.16;;;20.38;33.44
10176;BME280;18221;38.704;0.152;2024-03-23T06:20:52;99042.75;;;20.33;33.71
10176;BME280;18221;38.704;0.152;2024-03-23T06:23:20;99048.63;;;20.44;33.34
10176;BME280;18221;38.704;0.152;2024-03-23T06:25:48;99037.63;;;20.45;33.30
10176;BME280;18221;38.704;0.152;2024-03-23T06:28:16;99045.53;;;20.53;32.98
10176;BME280;18221;38.704;0.152;2024-03-23T06:30:44;99044.09;;;20.57;32.90
10176;BME280;18221;38.704;0.152;2024-03-23T06:33:13;99045.75;;;20.58;32.54
10176;BME280;18221;38.704;0.152;2024-03-23T06:35:40;99050.78;;;20.74;32.32
10176;BME280;18221;38.704;0.152;2024-03-23T06:38:08;99054.97;;;20.77;32.20
10176;BME280;18221;38.704;0.152;2024-03-23T06:40:37;99057.06;;;20.88;31.84
10176;BME280;18221;38.704;0.152;2024-03-23T06:43:06;99060.03;;;21.06;31.69
10176;BME280;18221;38.704;0.152;2024-03-23T06:45:33;99057.28;;;20.93;31.65
10176;BME280;18221;38.704;0.152;2024-03-23T06:48:03;99070.34;;;20.89;31.83
10176;BME280;18221;38.704;0.152;2024-03-23T06:50:30;99070.16;;;20.98;31.58
10176;BME280;18221;38.704;0.152;2024-03-23T06:52:58;99075.78;;;21.03;31.54
10176;BME280;18221;38.704;0.152;2024-03-23T06:55:25;99093.91;;;21.09;31.43
10176;BME280;18221;38.704;0.152;2024-03-23T06:57:54;99080.81;;;21.19;31.07
10176;BME280;18221;38.704;0.152;2024-03-23T07:00:22;99084.97;;;21.15;31.18
10176;BME280;18221;38.704;0.152;2024-03-23T07:02:51;99089.31;;;21.09;31.07
10176;BME280;18221;38.704;0.152;2024-03-23T07:05:18;99082.94;;;21.30;30.75
10176;BME280;18221;38.704;0.152;2024-03-23T07:07:46;99087.88;;;21.33;30.89
10176;BME280;18221;38.704;0.152;2024-03-23T07:10:13;99082.50;;;21.33;30.40
10176;BME280;18221;38.704;0.152;2024-03-23T07:12:41;99083.34;;;21.27;30.59
10176;BME280;18221;38.704;0.152;2024-03-23T07:15:09;99091.25;;;21.35;30.38
10176;BME280;18221;38.704;0.152;2024-03-23T07:17:39;99090.59;;;21.39;30.12
10176;BME280;18221;38.704;0.152;2024-03-23T07:20:06;99087.06;;;21.39;29.82
10176;BME280;18221;38.704;0.152;2024-03-23T07:22:36;99086.44;;;21.37;29.67
10176;BME280;18221;38.704;0.152;2024-03-23T07:25:05;99086.88;;;21.34;30.02
10176;BME280;18221;38.704;0.152;2024-03-23T07:27:33;99091.22;;;21.41;29.86
10176;BME280;18221;38.704;0.152;2024-03-23T07:30:00;99094.56;;;21.37;30.14
10176;BME280;18221;38.704;0.152;2024-03-23T07:32:28;99095.78;;;21.41;30.42
10176;BME280;18221;38.704;0.152;2024-03-23T07:34:56;99093.72;;;21.49;30.31
10176;BME280;18221;38.704;0.152;2024-03-23T07:37:24;99091.25;;;21.48;30.54
10176;BME280;18221;38.704;0.152;2024-03-23T07:39:52;99090.19;;;21.49;30.56
10176;BME280;18221;38.704;0.152;2024-03-23T07:42:20;99095.78;;;21.41;30.57
10176;BME280;18221;38.704;0.152;2024-03-23T07:44:47;99101.00;;;21.49;30.55
10176;BME280;18221;38.704;0.152;2024-03-23T07:47:15;99104.31;;;21.64;30.28
10176;BME280;18221;38.704;0.152;2024-03-23T07:49:42;99104.53;;;21.69;30.30
10176;BME280;18221;38.704;0.152;2024-03-23T07:52:12;99096.22;;;21.64;30.16
10176;BME280;18221;38.704;0.152;2024-03-23T07:54:39;99097.28;;;21.63;30.27
10176;BME280;18221;38.704;0.152;2024-03-23T07:57:07;99096.22;;;21.77;29.77
10176;BME280;18221;38.704;0.152;2024-03-23T07:59:34;99096.22;;;21.77;29.99
10176;BME280;18221;38.704;0.152;2024-03-23T08:02:02;99096.22;;;22.03;29.38
10176;BME280;18221;38.704;0.152;2024-03-23T08:04:30;99096.22;;;22.03;29.43
10176;BME280;18221;38.704;0.152;2024-03-23T08:06:59;99096.81;;;22.12;29.05
10176;BME280;18221;38.704;0.152;2024-03-23T08:09:28;99089.94;;;22.23;28.96
10176;BME280;18221;38.704;0.152;2024-03-23T08:11:58;99100.31;;;22.39;28.80
10176;BME280;18221;38.704;0.152;2024-03-23T08:14:25;99093.25;;;22.31;28.89
10176;BME280;18221;38.704;0.152;2024-03-23T08:16:55;99099.41;;;22.51;28.85
10176;BME280;18221;38.704;0.152;2024-03-23T08:19:22;99093.34;;;22.69;28.44
10176;BME280;18221;38.704;0.152;2024-03-23T08:21:50;99092.84;;;22.85;28.49
10176;BME280;18221;38.704;0.152;2024-03-23T08:24:18;99098.81;;;23.00;27.98
10176;BME280;18221;38.704;0.152;2024-03-23T08:26:47;99099.78;;;23.12;28.24
10176;BME280;18221;38.704;0.152;2024-03-23T08:29:14;99097.63;;;23.21;27.86
10176;BME280;18221;38.704;0.152;2024-03-23T08:31:42;99106.78;;;23.26;27.87
10176;BME280;18221;38.704;0.152;2024-03-23T08:34:09;99110.19;;;23.47;27.94
10176;BME280;18221;38.704;0.152;2024-03-23T08:36:37;99109.66;;;23.63;27.84
10176;BME280;18221;38.704;0.152;2024-03-23T08:39:04;99118.09;;;23.79;27.60
10176;BME280;18221;38.704;0.152;2024-03-23T08:41:32;99121.13;;;23.89;27.22
10176;BME280;18221;38.704;0.152;2024-03-23T08:44:01;99121.38;;;24.06;27.26
10176;BME280;18221;38.704;0.152;2024-03-23T08:46:28;99131.38;;;24.12;26.92
10176;BME280;18221;38.704;0.152;2024-03-23T08:48:56;99127.31;;;24.21;26.66
10176;BME280;18221;38.704;0.152;2024-03-23T08:51:23;99129.88;;;24.16;26.90
10176;BME280;18221;38.704;0.152;2024-03-23T08:53:51;99132.38;;;23.93;26.93
10176;BME280;18221;38.704;0.152;2024-03-23T08:56:18;99130.56;;;24.05;26.74
10176;BME280;18221;38.704;0.152;2024-03-23T08:58:46;99136.38;;;24.33;27.87
10176;BME280;18221;38.704;0.152;2024-03-23T09:01:15;99130.25;;;24.56;27.07
10176;BME280;18221;38.704;0.152;2024-03-23T09:03:44;99136.06;;;24.60;26.77
10176;BME280;18221;38.704;0.152;2024-03-23T09:06:13;99143.31;;;24.29;26.94
10176;BME280;18221;38.704;0.152;2024-03-23T09:08:42;99142.09;;;24.25;27.25
10176;BME280;18221;38.704;0.152;2024-03-23T09:11:11;99152.31;;;24.48;27.15
10176;BME280;18221;38.704;0.152;2024-03-23T09:13:40;99140.91;;;24.39;27.61
10176;BME280;18221;38.704;0.152;2024-03-23T09:16:08;99145.66;;;24.62;26.60
10176;BME280;18221;38.704;0.152;2024-03-23T09:18:40;99145.75;;;24.92;26.69
10176;BME280;18221;38.704;0.152;2024-03-23T09:21:12;99153.34;;;25.01;26.66
10176;BME280;18221;38.704;0.152;2024-03-23T09:23:43;99148.31;;;25.05;26.17
10176;BME280;18221;38.704;0.152;2024-03-23T09:26:09;99156.00;;;24.90;25.95
10176;BME280;18221;38.704;0.152;2024-03-23T09:28:38;99150.22;;;24.86;26.19
10176;BME280;18221;38.704;0.152;2024-03-23T09:31:06;99161.25;;;25.03;26.42
10176;BME280;18221;38.704;0.152;2024-03-23T09:33:35;99157.13;;;25.00;25.97
10176;BME280;18221;38.704;0.152;2024-03-23T09:36:06;99165.34;;;25.12;26.88
10176;BME280;18221;38.704;0.152;2024-03-23T09:38:35;99159.06;;;25.11;25.99
10176;BME280;18221;38.704;0.152;2024-03-23T09:41:07;99157.03;;;25.07;26.23
10176;BME280;18221;38.704;0.152;2024-03-23T09:43:35;99162.03;;;25.10;25.93
10176;BME280;18221;38.704;0.152;2024-03-23T09:46:03;99170.03;;;25.05;26.15
10176;BME280;18221;38.704;0.152;2024-03-23T09:48:32;99179.00;;;24.87;25.89
10176;BME280;18221;38.704;0.152;2024-03-23T09:50:59;99186.03;;;24.77;26.42
10176;BME280;18221;38.704;0.152;2024-03-23T09:53:28;99182.69;;;24.56;26.52
10176;BME280;18221;38.704;0.152;2024-03-23T09:55:55;99182.78;;;24.50;26.38
10176;BME280;18221;38.704;0.152;2024-03-23T09:58:24;99188.00;;;24.27;26.43
10176;BME280;18221;38.704;0.152;2024-03-23T10:00:51;99188.03;;;24.45;26.42
10176;BME280;18221;38.704;0.152;2024-03-23T10:03:19;99192.00;;;24.24;26.70
10176;BME280;18221;38.704;0.152;2024-03-23T10:05:46;99203.13;;;24.16;26.98
10176;BME280;18221;38.704;0.152;2024-03-23T10:08:19;99195.44;;;23.82;26.90
10176;BME280;18221;38.704;0.152;2024-03-23T10:10:49;99197.78;;;24.03;26.70
10176;BME280;18221;38.704;0.152;2024-03-23T10:13:27;99203.09;;;24.41;25.97
10176;BME280;18221;38.704;0.152;2024-03-23T10:15:57;99211.63;;;24.44;25.59
10176;BME280;18221;38.704;0.152;2024-03-23T10:18:26;99212.78;;;24.55;25.56
10176;BME280;18221;38.704;0.152;2024-03-23T10:21:09;99203.84;;;24.30;25.60
10176;BME280;18221;38.704;0.152;2024-03-23T10:23:38;99205.41;;;24.19;25.62
10176;BME280;18221;38.704;0.152;2024-03-23T10:26:18;99204.09;;;23.97;26.46
10176;BME280;18221;38.704;0.152;2024-03-23T10:28:55;99209.28;;;23.74;26.77
10176;BME280;18221;38.704;0.152;2024-03-23T10:31:24;99200.38;;;23.67;26.56
10176;BME280;18221;38.704;0.152;2024-03-23T10:33:52;99205.78;;;23.91;26.18
10176;BME280;18221;38.704;0.152;2024-03-23T10:36:22;99208.06;;;23.94;26.32
10176;BME280;18221;38.704;0.152;2024-03-23T10:38:51;99215.50;;;24.06;25.74
10176;BME280;18221;38.704;0.152;2024-03-23T10:41:20;99214.00;;;24.16;25.62
10176;BME280;18221;38.704;0.152;2024-03-23T10:43:49;99220.44;;;23.90;26.27
10176;BME280;18221;38.704;0.152;2024-03-23T10:46:16;99210.28;;;24.04;27.14
10176;BME280;18221;38.704;0.152;2024-03-23T10:48:44;99217.06;;;23.95;27.70
10176;BME280;18221;38.704;0.152;2024-03-23T10:51:12;99224.69;;;24.05;27.52
10176;BME280;18221;38.704;0.152;2024-03-23T10:53:41;99225.00;;;23.90;28.32
10176;BME280;18221;38.704;0.152;2024-03-23T10:56:10;99218.69;;;23.96;28.27
10176;BME280;18221;38.704;0.152;2024-03-23T10:58:45;99222.03;;;23.98;28.25
10176;BME280;18221;38.704;0.152;2024-03-23T11:01:13;99216.56;;;23.73;28.09
10176;BME280;18221;38.704;0.152;2024-03-23T11:03:45;99204.25;;;23.77;28.17
10176;BME280;18221;38.704;0.152;2024-03-23T11:06:36;99208.13;;;23.88;27.75
10176;BME280;18221;38.704;0.152;2024-03-23T11:09:40;99211.78;;;24.00;27.69
10176;BME280;18221;38.704;0.152;2024-03-23T11:12:28;99213.03;;;24.29;27.27
10176;BME280;18221;38.704;0.152;2024-03-23T11:15:02;99210.97;;;24.67;26.89
10176;BME280;18221;38.704;0.152;2024-03-23T11:17:31;99208.50;;;24.66;26.63
10176;BME280;18221;38.704;0.152;2024-03-23T11:20:00;99213.38;;;24.82;26.83
10176;BME280;18221;38.704;0.152;2024-03-23T11:22:44;99202.41;;;24.88;26.17
10176;BME280;18221;38.704;0.152;2024-03-23T11:25:17;99203.53;;;24.99;26.74
10176;BME280;18221;38.704;0.152;2024-03-23T11:27:49;99207.00;;;24.88;26.55
10176;BME280;18221;38.704;0.152;2024-03-23T11:30:20;99208.53;;;24.84;26.74
10176;BME280;18221;38.704;0.152;2024-03-23T11:32:50;99193.06;;;24.41;26.37
10176;BME280;18221;38.704;0.152;2024-03-23T11:35:28;99198.53;;;24.60;26.25
10176;BME280;18221;38.704;0.152;2024-03-23T11:38:08;99189.53;;;24.41;25.76
10176;BME280;18221;38.704;0.152;2024-03-23T11:40:37;99203.13;;;24.77;26.33
10176;BME280;18221;38.704;0.152;2024-03-23T11:43:06;99204.72;;;24.67;25.50
10176;BME280;18221;38.704;0.152;2024-03-23T11:45:41;99201.09;;;24.73;25.42
10176;BME280;18221;38.704;0.152;2024-03-23T11:48:12;99194.50;;;24.87;25.17
10176;BME280;18221;38.704;0.152;2024-03-23T11:50:40;99201.19;;;25.21;25.25
10176;BME280;18221;38.704;0.152;2024-03-23T11:53:14;99199.28;;;25.39;24.92
10176;BME280;18221;38.704;0.152;2024-03-23T11:55:47;99195.78;;;25.50;24.48
10176;BME280;18221;38.704;0.152;2024-03-23T11:58:16;99196.75;;;25.56;24.26
10176;BME280;18221;38.704;0.152;2024-03-23T12:00:51;99190.25;;;25.57;23.79
10176;BME280;18221;38.704;0.152;2024-03-23T12:03:20;99198.16;;;26.00;23.64
10176;BME280;18221;38.704;0.152;2024-03-23T12:05:50;99200.06;;;25.99;23.63
10176;BME280;18221;38.704;0.152;2024-03-23T12:08:21;99199.16;;;26.17;23.22
10176;BME280;18221;38.704;0.152;2024-03-23T12:10:51;99203.19;;;26.14;22.64
10176;BME280;18221;38.704;0.152;2024-03-23T12:13:21;99195.38;;;26.41;23.05
10176;BME280;18221;38.704;0.152;2024-03-23T12:15:50;99197.88;;;26.43;22.76
10176;BME280;18221;38.704;0.152;2024-03-23T12:18:24;99194.66;;;26.34;22.69
10176;BME280;18221;38.704;0.152;2024-03-23T12:20:51;99190.28;;;26.21;22.19
10176;BME280;18221;38.704;0.152;2024-03-23T12:23:19;99188.84;;;25.66;22.74
10176;BME280;18221;38.704;0.152;2024-03-23T12:25:49;99184.31;;;25.30;22.70
10176;BME280;18221;38.704;0.152;2024-03-23T12:28:17;99191.88;;;25.28;23.18
10176;BME280;18221;38.704;0.152;2024-03-23T12:30:44;99184.72;;;25.34;22.99
10176;BME280;18221;38.704;0.152;2024-03-23T12:33:13;99186.44;;;25.28;23.47
10176;BME280;18221;38.704;0.152;2024-03-23T12:35:40;99182.63;;;25.47;23.09
10176;BME280;18221;38.704;0.152;2024-03-23T12:38:08;99172.91;;;25.69;22.57
10176;BME280;18221;38.704;0.152;2024-03-23T12:40:35;99168.75;;;25.67;22.59
10176;BME280;18221;38.704;0.152;2024-03-23T12:43:03;99155.69;;;25.46;22.57
10176;BME280;18221;38.704;0.152;2024-03-23T12:45:30;99151.22;;;25.03;22.84
10176;BME280;18221;38.704;0.152;2024-03-23T12:47:58;99162.94;;;24.68;23.50
10176;BME280;18221;38.704;0.152;2024-03-23T12:50:26;99139.31;;;25.04;23.45
10176;BME280;18221;38.704;0.152;2024-03-23T12:52:54;99146.56;;;25.10;23.03
10176;BME280;18221;38.704;0.152;2024-03-23T12:55:21;99149.75;;;25.19;23.68
10176;BME280;18221;38.704;0.152;2024-03-23T12:57:49;99150.38;;;25.21;23.16
10176;BME280;18221;38.704;0.152;2024-03-23T13:00:17;99146.16;;;25.66;22.66
10176;BME280;18221;38.704;0.152;2024-03-23T13:02:45;99149.78;;;26.02;22.57
10176;BME280;18221;38.704;0.152;2024-03-23T13:05:15;99151.66;;;26.01;22.38
10176;BME280;18221;38.704;0.152;2024-03-23T13:07:44;99145.34;;;25.66;22.47
10176;BME280;18221;38.704;0.152;2024-03-23T13:10:11;99147.41;;;25.94;22.11
10176;BME280;18221;38.704;0.152;2024-03-23T13:12:40;99143.50;;;26.01;22.37
10176;BME280;18221;38.704;0.152;2024-03-23T13:15:09;99131.34;;;26.27;21.88
10176;BME280;18221;38.704;0.152;2024-03-23T13:17:37;99132.28;;;26.21;21.99
10176;BME280;18221;38.704;0.152;2024-03-23T13:20:05;99133.09;;;25.98;22.32
10176;BME280;18221;38.704;0.152;2024-03-23T13:22:39;99128.69;;;25.97;22.25
10176;BME280;18221;38.704;0.152;2024-03-23T13:25:08;99128.81;;;25.67;22.23
10176;BME280;18221;38.704;0.152;2024-03-23T13:27:36;99128.72;;;25.44;22.87
10176;BME280;18221;38.704;0.152;2024-03-23T13:30:04;99126.16;;;25.49;23.57
10176;BME280;18221;38.704;0.152;2024-03-23T13:32:32;99128.50;;;25.46;23.58
10176;BME280;18221;38.704;0.152;2024-03-23T13:34:59;99121.31;;;25.51;23.47
10176;BME280;18221;38.704;0.152;2024-03-23T13:37:27;99119.47;;;25.75;23.67
10176;BME280;18221;38.704;0.152;2024-03-23T13:39:54;99112.63;;;25.96;23.26
10176;BME280;18221;38.704;0.152;2024-03-23T13:42:24;99111.47;;;26.26;23.02
10176;BME280;18221;38.704;0.152;2024-03-23T13:44:52;99110.53;;;26.32;22.20
10176;BME280;18221;38.704;0.152;2024-03-23T13:47:20;99109.75;;;25.79;22.84
10176;BME280;18221;38.704;0.152;2024-03-23T13:49:46;99104.56;;;25.77;23.12
10176;BME280;18221;38.704;0.152;2024-03-23T13:52:15;99106.66;;;25.64;23.27
10176;BME280;18221;38.704;0.152;2024-03-23T13:54:42;99098.53;;;25.34;23.96
10176;BME280;18221;38.704;0.152;2024-03-23T13:57:12;99095.22;;;25.32;23.78
10176;BME280;18221;38.704;0.152;2024-03-23T13:59:41;99088.72;;;25.33;24.12
10176;BME280;18221;38.704;0.152;2024-03-23T14:02:09;99078.19;;;25.25;24.37
10176;BME280;18221;38.704;0.152;2024-03-23T14:04:37;99084.94;;;25.34;24.34
10176;BME280;18221;38.704;0.152;2024-03-23T14:07:05;99073.41;;;25.50;24.03
10176;BME280;18221;38.704;0.152;2024-03-23T14:09:33;99083.75;;;25.71;23.49